createdAt,value
2019-01-30T00:00:12.582Z,28.92
2019-01-30T00:02:41.568Z,25.23
2019-01-30T00:05:10.662Z,28.15
2019-01-30T00:07:39.658Z,34.50
2019-01-30T00:10:08.908Z,35.88
2019-01-30T00:12:37.760Z,24.80
2019-01-30T00:15:06.812Z,24.20
2019-01-30T00:17:35.689Z,37.75
2019-01-30T00:20:05.415Z,31.55
2019-01-30T00:22:34.408Z,28.07
2019-01-30T00:25:03.354Z,30.50
2019-01-30T00:27:32.350Z,28.50
2019-01-30T00:30:04.025Z,26.17
2019-01-30T00:32:32.358Z,27.65
2019-01-30T00:35:01.464Z,36.20
2019-01-30T00:37:30.341Z,36.30
2019-01-30T00:39:59.297Z,29.87
2019-01-30T00:42:28.177Z,38.85
2019-01-30T00:44:57.023Z,25.17
2019-01-30T00:47:25.953Z,31.17
2019-01-30T00:49:54.800Z,31.27
2019-01-30T00:52:23.683Z,33.98
2019-01-30T00:54:52.523Z,33.15
2019-01-30T00:57:21.377Z,35.15
2019-01-30T00:59:50.391Z,31.55
2019-01-30T01:02:19.457Z,34.33
2019-01-30T01:04:48.301Z,32.65
2019-01-30T01:07:17.282Z,41.00
2019-01-30T01:09:46.185Z,42.40
2019-01-30T01:12:15.221Z,41.55
2019-01-30T01:14:44.049Z,40.75
2019-01-30T01:17:13.162Z,39.83
2019-01-30T01:19:42.117Z,48.52
2019-01-30T01:22:11.165Z,33.15
2019-01-30T01:24:39.985Z,33.00
2019-01-30T01:27:08.896Z,35.58
2019-01-30T01:29:37.763Z,34.60
2019-01-30T01:32:06.761Z,40.67
2019-01-30T01:34:35.709Z,35.13
2019-01-30T01:37:04.993Z,34.38
2019-01-30T01:39:33.946Z,31.55
2019-01-30T01:42:02.773Z,35.23
2019-01-30T01:44:31.884Z,33.88
2019-01-30T01:47:00.815Z,39.58
2019-01-30T01:49:29.699Z,42.20
2019-01-30T01:51:58.753Z,33.42
2019-01-30T01:54:27.631Z,41.60
2019-01-30T01:56:56.561Z,42.75
2019-01-30T01:59:25.389Z,34.95
2019-01-30T02:01:54.211Z,33.18
2019-01-30T02:04:23.095Z,30.77
2019-01-30T02:06:52.053Z,34.73
2019-01-30T02:09:20.968Z,34.65
2019-01-30T02:11:49.877Z,40.10
2019-01-30T02:14:18.795Z,38.98
2019-01-30T02:16:47.679Z,44.35
2019-01-30T02:19:16.531Z,33.48
2019-01-30T02:21:45.333Z,33.50
2019-01-30T02:24:14.175Z,39.70
2019-01-30T02:26:42.975Z,30.50
2019-01-30T02:29:11.823Z,38.48
2019-01-30T02:31:40.769Z,34.38
2019-01-30T02:34:09.678Z,40.55
2019-01-30T02:36:57.595Z,33.58
2019-01-30T02:39:26.963Z,37.13
2019-01-30T02:41:55.957Z,33.60
2019-01-30T02:44:25.043Z,34.70
2019-01-30T02:46:53.913Z,37.93
2019-01-30T02:49:22.901Z,38.05
2019-01-30T02:51:51.728Z,36.73
2019-01-30T02:54:20.577Z,36.48
2019-01-30T02:56:49.435Z,35.10
2019-01-30T02:59:18.356Z,32.45
2019-01-30T03:01:59.104Z,40.23
2019-01-30T03:04:28.006Z,37.78
2019-01-30T03:06:56.979Z,35.00
2019-01-30T03:09:25.871Z,39.05
2019-01-30T03:11:54.737Z,33.20
2019-01-30T03:14:23.594Z,37.63
2019-01-30T03:16:52.444Z,30.90
2019-01-30T03:19:21.290Z,37.00
2019-01-30T03:21:50.231Z,40.10
2019-01-30T03:24:19.186Z,35.58
2019-01-30T03:26:48.090Z,34.73
2019-01-30T03:29:16.977Z,29.48
2019-01-30T03:31:45.832Z,30.43
2019-01-30T03:34:14.719Z,27.77
2019-01-30T03:36:43.568Z,28.62
2019-01-30T03:39:12.440Z,33.83
2019-01-30T03:41:41.479Z,31.25
2019-01-30T03:44:10.418Z,29.15
2019-01-30T03:46:39.280Z,27.73
2019-01-30T03:49:08.157Z,27.70
2019-01-30T03:51:37.032Z,30.32
2019-01-30T03:54:06.053Z,29.50
2019-01-30T03:56:34.881Z,36.83
2019-01-30T03:59:03.808Z,23.38
2019-01-30T04:01:32.732Z,24.60
2019-01-30T04:04:01.872Z,25.70
2019-01-30T04:06:30.776Z,27.60
2019-01-30T04:09:03.183Z,25.88
2019-01-30T04:11:32.189Z,28.85
2019-01-30T04:14:01.166Z,25.65
2019-01-30T04:16:30.139Z,29.10
2019-01-30T04:18:58.981Z,23.52
2019-01-30T04:21:27.886Z,24.23
2019-01-30T04:23:56.678Z,21.42
2019-01-30T04:26:25.491Z,26.87
2019-01-30T04:28:54.388Z,19.98
2019-01-30T04:31:23.232Z,22.98
2019-01-30T04:33:52.222Z,26.57
2019-01-30T04:36:21.237Z,24.20
2019-01-30T04:38:50.004Z,22.10
2019-01-30T04:41:18.898Z,25.40
2019-01-30T04:43:47.807Z,20.92
2019-01-30T04:46:16.736Z,29.12
2019-01-30T04:48:45.590Z,23.07
2019-01-30T04:51:14.562Z,20.68
2019-01-30T04:53:43.376Z,23.83
2019-01-30T04:56:12.306Z,24.77
2019-01-30T04:58:41.199Z,20.50
2019-01-30T05:01:10.222Z,29.40
2019-01-30T05:03:39.101Z,22.42
2019-01-30T05:06:08.068Z,22.70
2019-01-30T05:08:36.917Z,23.70
2019-01-30T05:11:05.938Z,24.18
2019-01-30T05:13:34.784Z,19.12
2019-01-30T05:16:03.701Z,22.42
2019-01-30T05:18:32.512Z,20.43
2019-01-30T05:21:01.384Z,18.60
2019-01-30T05:23:30.542Z,20.75
2019-01-30T05:26:00.000Z,20.62
2019-01-30T05:28:29.078Z,25.62
2019-01-30T05:30:57.951Z,18.00
2019-01-30T05:33:26.822Z,28.38
2019-01-30T05:35:55.780Z,20.97
2019-01-30T05:38:24.704Z,24.57
2019-01-30T05:40:53.572Z,27.30
2019-01-30T05:43:22.422Z,22.07
2019-01-30T05:45:51.286Z,25.20
2019-01-30T05:48:20.212Z,19.40
2019-01-30T05:50:49.083Z,26.65
2019-01-30T05:53:18.090Z,22.85
2019-01-30T05:55:46.946Z,25.05
2019-01-30T05:58:15.795Z,19.65
2019-01-30T06:00:45.350Z,27.65
2019-01-30T06:03:14.377Z,21.90
2019-01-30T06:05:43.219Z,25.62
2019-01-30T06:08:12.682Z,19.85
2019-01-30T06:10:41.580Z,22.82
2019-01-30T06:13:10.457Z,19.12
2019-01-30T06:15:39.451Z,20.43
2019-01-30T06:18:08.535Z,20.15
2019-01-30T06:20:37.511Z,25.02
2019-01-30T06:23:06.687Z,29.15
2019-01-30T06:25:36.025Z,25.55
2019-01-30T06:28:05.101Z,27.93
2019-01-30T06:30:34.231Z,30.50
2019-01-30T06:33:03.295Z,28.00
2019-01-30T06:35:32.367Z,27.22
2019-01-30T06:38:01.329Z,22.42
2019-01-30T06:40:32.357Z,20.10
2019-01-30T06:43:02.849Z,17.62
2019-01-30T06:45:31.991Z,23.32
2019-01-30T06:48:01.127Z,21.25
2019-01-30T06:50:30.249Z,22.02
2019-01-30T06:52:59.255Z,23.07
2019-01-30T06:55:28.156Z,26.05
2019-01-30T06:57:57.145Z,22.50
2019-01-30T07:00:26.923Z,22.87
2019-01-30T07:02:57.463Z,24.95
2019-01-30T07:05:26.288Z,19.27
2019-01-30T07:07:55.247Z,22.52
2019-01-30T07:10:28.446Z,22.05
2019-01-30T07:12:57.495Z,17.27
2019-01-30T07:15:26.472Z,20.40
2019-01-30T07:17:55.513Z,19.95
2019-01-30T07:20:24.461Z,18.20
2019-01-30T07:22:53.479Z,22.93
2019-01-30T07:25:22.808Z,20.50
2019-01-30T07:27:51.887Z,17.48
2019-01-30T07:30:29.399Z,19.20
2019-01-30T07:32:58.462Z,22.32
2019-01-30T07:35:27.374Z,19.77
2019-01-30T07:37:58.707Z,17.98
2019-01-30T07:40:27.976Z,16.55
2019-01-30T07:42:57.029Z,19.70
2019-01-30T07:45:27.285Z,19.07
2019-01-30T07:47:56.255Z,15.65
2019-01-30T07:50:25.281Z,20.57
2019-01-30T07:52:54.350Z,21.97
2019-01-30T07:55:23.352Z,21.73
2019-01-30T07:57:52.421Z,16.07
2019-01-30T08:00:32.686Z,21.35
2019-01-30T08:03:01.861Z,15.98
2019-01-30T08:05:30.900Z,20.90
2019-01-30T08:07:59.982Z,17.00
2019-01-30T08:10:28.960Z,20.97
2019-01-30T08:12:57.832Z,19.98
2019-01-30T08:15:27.016Z,18.77
2019-01-30T08:17:56.128Z,25.83
2019-01-30T08:20:25.142Z,23.43
2019-01-30T08:22:54.136Z,20.57
2019-01-30T08:25:23.870Z,24.60
2019-01-30T08:27:53.051Z,23.80
2019-01-30T08:30:32.025Z,27.82
2019-01-30T08:33:05.924Z,15.90
2019-01-30T08:35:33.521Z,21.77
2019-01-30T08:38:02.511Z,22.63
2019-01-30T08:40:31.586Z,17.40
2019-01-30T08:43:00.633Z,18.57
2019-01-30T08:45:31.436Z,26.27
2019-01-30T08:48:00.554Z,24.97
2019-01-30T08:50:29.856Z,22.67
2019-01-30T08:52:58.854Z,24.13
2019-01-30T08:55:27.880Z,21.27
2019-01-30T08:57:56.818Z,23.32
2019-01-30T09:00:26.689Z,20.37
2019-01-30T09:02:55.767Z,20.20
2019-01-30T09:05:24.759Z,23.10
2019-01-30T09:07:53.782Z,25.00
2019-01-30T09:10:23.420Z,20.70
2019-01-30T09:12:52.418Z,17.73
2019-01-30T09:15:22.650Z,18.67
2019-01-30T09:17:51.624Z,19.00
2019-01-30T09:20:21.674Z,18.67
2019-01-30T09:22:50.720Z,16.70
2019-01-30T09:25:21.439Z,17.20
2019-01-30T09:27:50.743Z,23.43
2019-01-30T09:30:31.094Z,16.87
2019-01-30T09:32:59.991Z,16.60
2019-01-30T09:35:29.030Z,20.00
2019-01-30T09:37:58.045Z,21.90
2019-01-30T09:40:27.118Z,24.37
2019-01-30T09:42:56.038Z,19.40
2019-01-30T09:45:25.364Z,15.43
2019-01-30T09:47:54.370Z,15.47
2019-01-30T09:50:23.420Z,18.30
2019-01-30T09:52:52.678Z,18.60
2019-01-30T09:55:21.933Z,16.37
2019-01-30T09:57:50.988Z,18.23
2019-01-30T10:00:28.519Z,19.83
2019-01-30T10:02:57.443Z,19.93
2019-01-30T10:05:26.418Z,18.47
2019-01-30T10:07:55.529Z,21.47
2019-01-30T10:10:29.720Z,17.13
2019-01-30T10:12:58.713Z,19.93
2019-01-30T10:15:30.232Z,18.37
2019-01-30T10:17:59.258Z,19.03
2019-01-30T10:20:28.570Z,20.13
2019-01-30T10:22:57.791Z,21.10
2019-01-30T10:25:26.848Z,16.03
2019-01-30T10:27:55.882Z,20.37
2019-01-30T10:30:30.133Z,15.97
2019-01-30T10:32:59.105Z,19.67
2019-01-30T10:35:28.354Z,22.03
2019-01-30T10:37:57.490Z,18.70
2019-01-30T10:40:26.510Z,16.10
2019-01-30T10:42:57.414Z,16.53
2019-01-30T10:45:26.484Z,14.60
2019-01-30T10:47:55.471Z,14.47
2019-01-30T10:50:25.455Z,16.90
2019-01-30T10:52:55.106Z,16.73
2019-01-30T10:55:25.814Z,18.77
2019-01-30T10:57:56.630Z,12.40
2019-01-30T11:00:28.257Z,16.13
2019-01-30T11:02:57.150Z,13.13
2019-01-30T11:05:26.222Z,12.97
2019-01-30T11:07:55.155Z,15.17
2019-01-30T11:10:24.080Z,15.20
2019-01-30T11:12:52.951Z,14.10
2019-01-30T11:15:23.321Z,15.60
2019-01-30T11:17:52.325Z,16.40
2019-01-30T11:20:22.110Z,12.73
2019-01-30T11:22:53.499Z,11.93
2019-01-30T11:25:24.637Z,12.47
2019-01-30T11:27:53.647Z,10.93
2019-01-30T11:30:23.199Z,14.03
2019-01-30T11:32:52.149Z,12.40
2019-01-30T11:35:21.367Z,16.93
2019-01-30T11:37:50.430Z,14.63
2019-01-30T11:40:19.991Z,12.37
2019-01-30T11:42:48.899Z,13.00
2019-01-30T11:45:20.489Z,14.23
2019-01-30T11:47:49.447Z,12.23
2019-01-30T11:50:18.434Z,12.93
2019-01-30T11:52:47.343Z,14.80
2019-01-30T11:55:16.323Z,14.47
2019-01-30T11:57:45.309Z,14.00
2019-01-30T12:00:20.040Z,14.07
2019-01-30T12:02:48.899Z,15.00
2019-01-30T12:05:17.998Z,17.23
2019-01-30T12:07:47.116Z,17.30
2019-01-30T12:10:16.157Z,14.30
2019-01-30T12:12:45.125Z,17.33
2019-01-30T12:15:16.629Z,18.73
2019-01-30T12:17:45.565Z,17.30
2019-01-30T12:20:14.612Z,21.07
2019-01-30T12:22:43.856Z,19.03
2019-01-30T12:25:14.738Z,14.13
2019-01-30T12:27:43.611Z,19.47
2019-01-30T12:30:15.362Z,22.30
2019-01-30T12:32:44.295Z,18.80
2019-01-30T12:35:13.249Z,17.47
2019-01-30T12:37:42.252Z,17.50
2019-01-30T12:40:12.960Z,14.53
2019-01-30T12:42:41.951Z,18.73
2019-01-30T12:45:15.074Z,16.07
2019-01-30T12:47:44.057Z,16.47
2019-01-30T12:50:13.221Z,21.00
2019-01-30T12:52:42.195Z,20.80
2019-01-30T12:55:11.682Z,21.73
2019-01-30T12:57:40.663Z,18.80
2019-01-30T13:00:14.593Z,18.40
2019-01-30T13:02:43.577Z,17.73
2019-01-30T13:05:12.847Z,20.03
2019-01-30T13:07:41.670Z,18.80
2019-01-30T13:10:11.222Z,20.80
2019-01-30T13:12:40.049Z,18.50
2019-01-30T13:15:10.837Z,23.33
2019-01-30T13:17:39.820Z,20.53
2019-01-30T13:20:12.314Z,20.13
2019-01-30T13:22:41.285Z,16.63
2019-01-30T13:25:10.486Z,23.50
2019-01-30T13:27:39.497Z,26.00
2019-01-30T13:30:12.700Z,18.70
2019-01-30T13:32:41.820Z,20.00
2019-01-30T13:35:10.846Z,22.70
2019-01-30T13:37:39.886Z,26.63
2019-01-30T13:40:15.758Z,27.10
2019-01-30T13:42:44.726Z,29.20
2019-01-30T13:45:13.724Z,33.67
2019-01-30T13:47:43.072Z,28.90
2019-01-30T13:50:18.333Z,29.93
2019-01-30T13:52:48.289Z,26.70
2019-01-30T13:55:17.456Z,29.33
2019-01-30T13:57:49.599Z,30.63
2019-01-30T14:00:24.225Z,30.13
2019-01-30T14:02:53.256Z,29.43
2019-01-30T14:05:22.430Z,29.90
2019-01-30T14:07:51.769Z,36.47
2019-01-30T14:10:20.980Z,28.87
2019-01-30T14:12:49.927Z,26.77
2019-01-30T14:15:20.350Z,29.00
2019-01-30T14:17:49.429Z,24.67
2019-01-30T14:20:18.506Z,24.73
2019-01-30T14:22:47.647Z,30.20
2019-01-30T14:25:16.936Z,27.60
2019-01-30T14:27:45.808Z,27.33
2019-01-30T14:30:18.140Z,28.63
2019-01-30T14:32:47.027Z,31.33
2019-01-30T14:35:16.084Z,28.17
2019-01-30T14:37:45.234Z,22.07
2019-01-30T14:40:15.786Z,26.63
2019-01-30T14:42:44.746Z,31.83
2019-01-30T14:45:15.204Z,27.93
2019-01-30T14:47:44.354Z,28.10
2019-01-30T14:50:15.935Z,28.13
2019-01-30T14:52:45.150Z,23.60
2019-01-30T14:55:15.775Z,25.90
2019-01-30T14:57:44.787Z,24.23
2019-01-30T15:00:19.689Z,20.60
2019-01-30T15:02:48.752Z,25.73
2019-01-30T15:05:22.394Z,23.80
2019-01-30T15:07:48.745Z,19.77
2019-01-30T15:10:18.441Z,22.27
2019-01-30T15:12:47.672Z,27.13
2019-01-30T15:15:18.491Z,23.20
2019-01-30T15:17:47.543Z,25.03
2019-01-30T15:20:24.749Z,25.23
2019-01-30T15:22:54.063Z,33.13
2019-01-30T15:25:23.772Z,23.33
2019-01-30T15:27:52.731Z,21.10
2019-01-30T15:30:23.972Z,16.87
2019-01-30T15:32:53.169Z,20.60
2019-01-30T15:35:32.888Z,25.00
2019-01-30T15:37:52.705Z,26.30
2019-01-30T15:40:23.797Z,22.00
2019-01-30T15:42:52.691Z,19.03
2019-01-30T15:45:22.410Z,20.23
2019-01-30T15:47:51.490Z,22.90
2019-01-30T15:50:22.433Z,25.00
2019-01-30T15:52:52.015Z,20.37
2019-01-30T15:55:21.098Z,16.80
2019-01-30T15:57:52.949Z,24.43
2019-01-30T16:00:36.861Z,23.27
2019-01-30T16:03:06.033Z,17.07
2019-01-30T16:05:44.441Z,19.20
2019-01-30T16:08:06.021Z,20.80
2019-01-30T16:10:35.103Z,18.90
2019-01-30T16:13:04.162Z,16.80
2019-01-30T16:15:36.497Z,17.27
2019-01-30T16:18:05.779Z,18.43
2019-01-30T16:20:34.809Z,21.33
2019-01-30T16:23:03.859Z,21.90
2019-01-30T16:25:32.755Z,18.67
2019-01-30T16:28:01.863Z,20.33
2019-01-30T16:30:30.959Z,19.37
2019-01-30T16:32:59.846Z,19.77
2019-01-30T16:35:30.029Z,17.50
2019-01-30T16:37:59.146Z,18.07
2019-01-30T16:40:28.093Z,19.90
2019-01-30T16:42:57.243Z,18.13
2019-01-30T16:45:27.449Z,15.60
2019-01-30T16:47:56.395Z,19.90
2019-01-30T16:50:25.496Z,18.20
2019-01-30T16:52:54.463Z,20.87
2019-01-30T16:55:23.593Z,15.77
2019-01-30T16:57:52.809Z,21.93
2019-01-30T17:00:24.429Z,17.43
2019-01-30T17:02:53.355Z,20.37
2019-01-30T17:05:22.517Z,25.33
2019-01-30T17:07:51.419Z,16.60
2019-01-30T17:10:20.451Z,23.27
2019-01-30T17:12:49.401Z,18.57
2019-01-30T17:15:20.298Z,20.83
2019-01-30T17:17:49.240Z,23.47
2019-01-30T17:20:23.148Z,20.30
2019-01-30T17:22:52.045Z,18.70
2019-01-30T17:25:21.534Z,18.90
2019-01-30T17:27:50.319Z,17.20
2019-01-30T17:30:25.530Z,18.00
2019-01-30T17:32:54.583Z,18.87
2019-01-30T17:35:23.614Z,18.67
2019-01-30T17:37:52.447Z,19.30
2019-01-30T17:40:22.118Z,21.20
2019-01-30T17:42:51.117Z,17.60
2019-01-30T17:45:20.139Z,17.47
2019-01-30T17:47:49.347Z,22.03
2019-01-30T17:50:20.802Z,16.40
2019-01-30T17:52:49.761Z,23.03
2019-01-30T17:55:18.719Z,22.20
2019-01-30T17:57:47.715Z,19.17
2019-01-30T18:00:24.866Z,16.80
2019-01-30T18:02:53.987Z,19.63
2019-01-30T18:05:23.082Z,20.97
2019-01-30T18:07:52.071Z,23.37
2019-01-30T18:10:21.000Z,21.30
2019-01-30T18:12:50.026Z,20.70
2019-01-30T18:15:18.982Z,24.70
2019-01-30T18:17:47.928Z,21.43
2019-01-30T18:20:17.084Z,22.10
2019-01-30T18:22:46.050Z,24.03
2019-01-30T18:25:15.703Z,23.27
2019-01-30T18:27:44.658Z,29.77
2019-01-30T18:30:15.816Z,32.20
2019-01-30T18:32:44.983Z,52.47
2019-01-30T18:35:14.422Z,36.60
2019-01-30T18:37:43.475Z,84.87
2019-01-30T18:40:17.596Z,29.10
2019-01-30T18:42:46.869Z,31.53
2019-01-30T18:45:21.190Z,64.73
2019-01-30T18:47:50.003Z,33.63
2019-01-30T18:50:20.984Z,26.90
2019-01-30T18:52:49.948Z,31.67
2019-01-30T18:55:19.611Z,48.50
2019-01-30T18:57:48.908Z,41.10
2019-01-30T19:00:26.954Z,31.37
2019-01-30T19:02:57.270Z,24.67
2019-01-30T19:05:26.366Z,27.67
2019-01-30T19:07:55.178Z,28.57
2019-01-30T19:10:24.212Z,41.87
2019-01-30T19:12:53.317Z,37.43
2019-01-30T19:15:23.465Z,27.93
2019-01-30T19:17:52.296Z,30.50
2019-01-30T19:20:23.536Z,50.43
2019-01-30T19:22:52.462Z,39.48
2019-01-30T19:25:21.464Z,29.77
2019-01-30T19:27:50.458Z,33.35
2019-01-30T19:30:21.890Z,35.20
2019-01-30T19:32:50.800Z,38.10
2019-01-30T19:35:19.723Z,29.30
2019-01-30T19:37:48.700Z,32.70
2019-01-30T19:40:17.722Z,35.70
2019-01-30T19:42:46.686Z,31.20
2019-01-30T19:45:16.770Z,30.40
2019-01-30T19:47:45.740Z,33.80
2019-01-30T19:50:17.257Z,35.67
2019-01-30T19:52:46.306Z,33.30
2019-01-30T19:55:15.296Z,33.20
2019-01-30T19:57:44.309Z,34.70
2019-01-30T20:00:22.283Z,33.67
2019-01-30T20:02:51.578Z,34.07
2019-01-30T20:05:20.675Z,37.00
2019-01-30T20:07:49.697Z,32.83
2019-01-30T20:10:20.985Z,38.63
2019-01-30T20:12:50.077Z,40.23
2019-01-30T20:15:19.166Z,36.10
2019-01-30T20:17:48.124Z,38.53
2019-01-30T20:20:17.496Z,37.37
2019-01-30T20:22:46.525Z,39.80
2019-01-30T20:25:18.014Z,37.30
2019-01-30T20:27:46.967Z,40.67
2019-01-30T20:30:20.612Z,37.67
2019-01-30T20:32:49.613Z,47.48
2019-01-30T20:35:18.700Z,39.90
2019-01-30T20:37:47.643Z,39.30
2019-01-30T20:40:27.379Z,43.33
2019-01-30T20:42:56.378Z,36.87
2019-01-30T20:45:33.531Z,39.63
2019-01-30T20:47:56.244Z,40.67
2019-01-30T20:50:27.060Z,42.10
2019-01-30T20:52:56.274Z,49.27
2019-01-30T20:55:25.312Z,41.92
2019-01-30T20:57:54.237Z,42.43
2019-01-30T21:00:28.774Z,41.70
2019-01-30T21:02:57.741Z,38.60
2019-01-30T21:05:26.705Z,42.62
2019-01-30T21:07:55.722Z,37.47
2019-01-30T21:10:27.120Z,44.03
2019-01-30T21:12:55.969Z,41.45
2019-01-30T21:15:24.917Z,44.35
2019-01-30T21:17:53.987Z,46.55
2019-01-30T21:20:23.023Z,44.00
2019-01-30T21:22:52.061Z,42.87
2019-01-30T21:25:21.108Z,45.08
2019-01-30T21:27:50.513Z,46.97
2019-01-30T21:30:24.721Z,45.30
2019-01-30T21:32:53.701Z,42.43
2019-01-30T21:35:22.639Z,39.40
2019-01-30T21:37:51.595Z,46.80
2019-01-30T21:40:20.630Z,43.40
2019-01-30T21:42:49.875Z,43.15
2019-01-30T21:45:20.355Z,46.23
2019-01-30T21:47:49.445Z,44.17
2019-01-30T21:50:18.551Z,48.60
2019-01-30T21:52:47.500Z,45.40
2019-01-30T21:55:18.294Z,49.10
2019-01-30T21:57:47.370Z,47.25
2019-01-30T22:00:24.188Z,46.88
2019-01-30T22:02:53.207Z,51.13
2019-01-30T22:05:22.248Z,49.00
2019-01-30T22:08:00.514Z,52.75
2019-01-30T22:10:24.112Z,43.53
2019-01-30T22:12:53.108Z,46.70
2019-01-30T22:15:22.014Z,56.15
2019-01-30T22:17:50.990Z,52.83
2019-01-30T22:20:21.860Z,47.20
2019-01-30T22:22:50.942Z,52.40
2019-01-30T22:25:20.868Z,46.00
2019-01-30T22:27:49.918Z,42.55
2019-01-30T22:30:29.904Z,52.62
2019-01-30T22:32:58.836Z,52.80
2019-01-30T22:35:27.793Z,49.08
2019-01-30T22:37:56.673Z,50.37
2019-01-30T22:40:25.908Z,51.37
2019-01-30T22:42:54.778Z,51.73
2019-01-30T22:45:23.820Z,50.30
2019-01-30T22:47:53.081Z,54.10
2019-01-30T22:50:22.104Z,54.40
2019-01-30T22:52:51.043Z,52.43
2019-01-30T22:55:21.197Z,52.40
2019-01-30T22:57:51.039Z,57.13
2019-01-30T23:01:06.523Z,52.15
2019-01-30T23:03:40.656Z,50.10
2019-01-30T23:06:32.702Z,53.50
2019-01-30T23:09:26.576Z,52.50
2019-01-30T23:12:23.004Z,58.63
2019-01-30T23:14:59.174Z,49.98
2019-01-30T23:18:18.248Z,46.33
2019-01-30T23:20:57.448Z,45.50
2019-01-30T23:24:09.316Z,51.40
2019-01-30T23:26:47.074Z,52.35
2019-01-30T23:29:51.482Z,51.35
2019-01-30T23:32:45.720Z,52.85
2019-01-30T23:35:46.657Z,53.45
2019-01-30T23:38:38.598Z,59.63
2019-01-30T23:41:29.014Z,61.27
2019-01-30T23:44:17.123Z,49.90
2019-01-30T23:47:18.828Z,51.23
2019-01-30T23:50:17.384Z,63.40
2019-01-30T23:53:36.406Z,59.40
2019-01-30T23:56:33.535Z,53.78
2019-01-30T23:59:51.792Z,52.65
